ESGT

Trollhättan–Vänersborg Airport

Airport
ICAO code
ESGT
IATA Code
THN
Summary
ICAO Region
EUR
ICAO Territory
Location

Trollhättan, Västra Götaland County

Serving
Trollhättan
Elevation
137 ft
Coordinates
58° 19' 27" N , 12° 20' 11" E
KCC
Metar
ESGT 272150Z AUTO 18003KT 1200 R15/P2000N R33/P2000N NCD 14/13 Q1016

Trollhättan-Vänersborg Airport (IATA: THN, ICAO: ESGT) is a small regional airport situated outside Trollhättan, Sweden.

Climatology

Humid continental climate (Köppen climate classification Dfb)

Runways

Designator Length Width Surface Rops
15/33 1710 30 ASP Yes/Yes

Airport map

Aerial View

SKYbrary Partners:

Safety knowledge contributed by: